Sretensk, Russia
Current Conditions -  °F | °C
As of 7:00 PM on Thursday 29 Jan 2015 (Local Time) from UIAA Reporting Station
Clear Clear  
Wind Chill: -4°   Ceiling: Unl
Heat Index: -4°   Visibility: 6mi
Dew Point: -15°   Wind: 2mph
Humidity: 60%   Direction: NA
Pressure: 30.27"   Gusts: NA
Location:  52.23°N, 117.7°E
Report Text: UIAA 291000Z VRB01MPS 9999 SKC M20/M26 Q1025 NOSIG RMK QFE71029CLRD70
Loading
Personal Weather Stations






























Interactive Weather Map New forecast layout! Learn more

10-Day Weather Forecast

Advertisements
Track Severe Weather on mobile